Decoded Metar for KSSC (SUMTER in SC, USA) (IATA:SSC) | Meteo·Mobile Aviation Weather
aviador You're here:

KSSC Decoded Metar

SUMTER in SC, USA
Report Time2018-08-22 04:56:00
UTC Time2018-08-22 05:38:09
Flight Rules vfr VFR
Wind210° at 08 kt
W.Decomp.*RWY 22: 8.0 kt HW 0.7 kt LCW
W.Rank210° ranks 4
Current wind is above 210° avg. (6.8)
Visibility9999 m
Phenomena:N/A
Clouds:N/A
Expected CloudBase > 1,200 ft AGL from Temp-Dew spread
CeilingNone
Temp26°C (ISA +11)
Dew Point23°C (84% RH)
QNH1015 hPa
Density Alt1,873 ft
Elevation243 ft
Report Wrong Elevation
Raw Report
KSSC 220456Z AUTO 21008KT 10SM CLR 26/23 A2997 RMK AO2 SLP148
T02560232 403090231 TSNO $=

Extra information for KSSC:More info

Metar Taf Metar & Taf Last 4 Metars F.Rules Stats Wind Profile Meteogram Temp Stats Airport Information Weather charts Add Link Nearby VenuesMetar ALERT Operation Metar Decoded Social comments

AIRNAV info for KSSC